createdAt,value
2015-07-19T00:00:18.419Z,95635
2015-07-19T00:00:36.935Z,95638
2015-07-19T00:00:55.562Z,95637
2015-07-19T00:01:13.984Z,95634
2015-07-19T00:01:32.359Z,95635
2015-07-19T00:01:50.906Z,95632
2015-07-19T00:02:09.533Z,95638
2015-07-19T00:02:27.955Z,95626
2015-07-19T00:02:45.798Z,95626
2015-07-19T00:03:04.222Z,95623
2015-07-19T00:03:22.816Z,95626
2015-07-19T00:03:41.175Z,95623
2015-07-19T00:03:58.990Z,95622
2015-07-19T00:04:17.396Z,95628
2015-07-19T00:04:36.006Z,95621
2015-07-19T00:04:54.568Z,95621
2015-07-19T00:05:13.054Z,95621
2015-07-19T00:05:31.586Z,95626
2015-07-19T00:05:50.039Z,95614
2015-07-19T00:06:08.572Z,95626
2015-07-19T00:06:27.322Z,95626
2015-07-19T00:06:45.744Z,95620
2015-07-19T00:07:04.152Z,95620
2015-07-19T00:07:22.543Z,95629
2015-07-19T00:07:40.918Z,95617
2015-07-19T00:07:59.342Z,95617
2015-07-19T00:08:17.857Z,95611
2015-07-19T00:08:36.498Z,95622
2015-07-19T00:08:54.982Z,95625
2015-07-19T00:09:13.422Z,95620
2015-07-19T00:09:31.844Z,95618
2015-07-19T00:09:50.266Z,95632
2015-07-19T00:10:08.892Z,95615
2015-07-19T00:10:27.329Z,95621
2015-07-19T00:10:45.954Z,95618
2015-07-19T00:11:04.456Z,95621
2015-07-19T00:11:23.050Z,95633
2015-07-19T00:11:41.565Z,95616
2015-07-19T00:12:00.065Z,95610
2015-07-19T00:12:18.475Z,95613
2015-07-19T00:12:36.912Z,95619
2015-07-19T00:12:55.443Z,95619
2015-07-19T00:13:14.086Z,95619
2015-07-19T00:13:32.477Z,95616
2015-07-19T00:13:51.227Z,95622
2015-07-19T00:14:09.666Z,95622
2015-07-19T00:14:28.213Z,95625
2015-07-19T00:14:46.682Z,95622
2015-07-19T00:15:05.354Z,95616
2015-07-19T00:15:23.745Z,95622
2015-07-19T00:15:42.214Z,95628
2015-07-19T00:16:00.808Z,95620
2015-07-19T00:16:19.294Z,95626
2015-07-19T00:16:37.685Z,95620
2015-07-19T00:16:56.247Z,95614
2015-07-19T00:17:14.640Z,95620
2015-07-19T00:17:32.999Z,95612
2015-07-19T00:17:51.390Z,95617
2015-07-19T00:18:09.952Z,95617
2015-07-19T00:18:28.548Z,95616
2015-07-19T00:18:47.001Z,95616
2015-07-19T00:19:05.548Z,95612
2015-07-19T00:19:23.957Z,95607
2015-07-19T00:19:42.379Z,95613
2015-07-19T00:20:00.989Z,95607
2015-07-19T00:20:19.474Z,95615
2015-07-19T00:20:38.052Z,95606
2015-07-19T00:20:56.630Z,95601
2015-07-19T00:21:14.990Z,95606
2015-07-19T00:21:33.664Z,95604
2015-07-19T00:21:52.242Z,95612
2015-07-19T00:22:10.804Z,95601
2015-07-19T00:22:29.416Z,95601
2015-07-19T00:22:47.791Z,95606
2015-07-19T00:23:06.541Z,95606
2015-07-19T00:23:24.949Z,95601
2015-07-19T00:23:43.527Z,95595
2015-07-19T00:24:01.949Z,95600
2015-07-19T00:24:20.310Z,95600
2015-07-19T00:24:38.263Z,95594
2015-07-19T00:24:56.654Z,95595
2015-07-19T00:25:15.045Z,95593
2015-07-19T00:25:33.437Z,95587
2015-07-19T00:25:51.968Z,95592
2015-07-19T00:26:10.500Z,95590
2015-07-19T00:26:29.002Z,95593
2015-07-19T00:26:47.533Z,95599
2015-07-19T00:27:05.970Z,95597
2015-07-19T00:27:24.457Z,95575
2015-07-19T00:27:42.832Z,95587
2015-07-19T00:28:01.301Z,95589
2015-07-19T00:28:19.691Z,95589
2015-07-19T00:28:38.318Z,95584
2015-07-19T00:29:01.256Z,95586
2015-07-19T00:29:19.662Z,95574
2015-07-19T00:29:38.195Z,95582
2015-07-19T00:29:56.508Z,95582
2015-07-19T00:30:15.117Z,95582
2015-07-19T00:30:33.540Z,95587
2015-07-19T00:30:52.071Z,95590
2015-07-19T00:31:10.556Z,95593
2015-07-19T00:31:28.993Z,95592
2015-07-19T00:31:47.605Z,95593
2015-07-19T00:32:05.996Z,95590
2015-07-19T00:32:24.543Z,95590
2015-07-19T00:32:42.904Z,95587
2015-07-19T00:33:01.279Z,95578
2015-07-19T00:33:19.670Z,95581
2015-07-19T00:33:38.047Z,95581
2015-07-19T00:33:56.500Z,95584
2015-07-19T00:34:14.969Z,95586
2015-07-19T00:34:33.391Z,95574
2015-07-19T00:34:51.954Z,95580
2015-07-19T00:35:10.314Z,95566
2015-07-19T00:35:29.189Z,95564
2015-07-19T00:35:47.628Z,95566
2015-07-19T00:36:06.081Z,95560
2015-07-19T00:36:24.612Z,95563
2015-07-19T00:36:43.084Z,95559
2015-07-19T00:37:01.709Z,95556
2015-07-19T00:37:19.803Z,95562
2015-07-19T00:37:38.179Z,95559
2015-07-19T00:37:56.663Z,95562
2015-07-19T00:38:15.163Z,95568
2015-07-19T00:38:33.570Z,95567
2015-07-19T00:38:51.354Z,95564
2015-07-19T00:39:09.885Z,95569
2015-07-19T00:39:28.385Z,95577
2015-07-19T00:39:46.761Z,95569
2015-07-19T00:40:05.136Z,95580
2015-07-19T00:40:23.542Z,95577
2015-07-19T00:40:41.949Z,95588
2015-07-19T00:41:00.357Z,95580
2015-07-19T00:41:18.732Z,95590
2015-07-19T00:41:37.294Z,95597
2015-07-19T00:41:55.828Z,95602
2015-07-19T00:42:14.203Z,95596
2015-07-19T00:42:32.734Z,95599
2015-07-19T00:42:51.237Z,95602
2015-07-19T00:43:09.596Z,95603
2015-07-19T00:43:27.971Z,95605
2015-07-19T00:43:46.440Z,95606
2015-07-19T00:44:04.832Z,95605
2015-07-19T00:44:23.207Z,95614
2015-07-19T00:44:41.644Z,95611
2015-07-19T00:45:00.037Z,95616
2015-07-19T00:45:18.474Z,95617
2015-07-19T00:45:36.849Z,95628
2015-07-19T00:45:55.539Z,95625
2015-07-19T00:46:13.914Z,95619
2015-07-19T00:46:32.351Z,95613
2015-07-19T00:46:50.711Z,95628
2015-07-19T00:47:09.103Z,95627
2015-07-19T00:47:26.963Z,95621
2015-07-19T00:47:45.353Z,95610
2015-07-19T00:48:03.949Z,95622
2015-07-19T00:48:22.699Z,95610
2015-07-19T00:48:41.183Z,95611
2015-07-19T00:48:59.654Z,95613
2015-07-19T00:49:18.107Z,95617
2015-07-19T00:49:36.513Z,95606
2015-07-19T00:49:54.969Z,95605
2015-07-19T00:50:13.453Z,95612
2015-07-19T00:50:31.953Z,95610
2015-07-19T00:50:50.328Z,95605
2015-07-19T00:51:08.705Z,95598
2015-07-19T00:51:27.189Z,95605
2015-07-19T00:51:45.564Z,95600
2015-07-19T00:52:04.035Z,95603
2015-07-19T00:52:22.426Z,95603
2015-07-19T00:52:40.832Z,95607
2015-07-19T00:52:58.568Z,95609
2015-07-19T00:53:16.975Z,95606
2015-07-19T00:53:35.568Z,95606
2015-07-19T00:53:54.037Z,95605
2015-07-19T00:54:12.430Z,95597
2015-07-19T00:54:30.883Z,95601
2015-07-19T00:54:48.711Z,95605
2015-07-19T00:55:07.104Z,95600
2015-07-19T00:55:25.463Z,95610
2015-07-19T00:55:43.885Z,95599
2015-07-19T00:56:02.277Z,95599
2015-07-19T00:56:20.856Z,95599
2015-07-19T00:56:39.277Z,95599
2015-07-19T00:56:57.715Z,95601
2015-07-19T00:57:16.092Z,95601
2015-07-19T00:57:34.701Z,95598
2015-07-19T00:57:53.358Z,95598
2015-07-19T00:58:11.766Z,95593
2015-07-19T00:58:30.125Z,95599
2015-07-19T00:58:48.516Z,95581
2015-07-19T00:59:07.002Z,95590
2015-07-19T00:59:25.393Z,95595
2015-07-19T00:59:43.815Z,95583
2015-07-19T01:00:02.330Z,95589
2015-07-19T01:00:20.784Z,95583
2015-07-19T01:00:39.425Z,95574
2015-07-19T01:00:58.066Z,95577
2015-07-19T01:01:16.505Z,95575
2015-07-19T01:01:34.911Z,95572
2015-07-19T01:01:53.365Z,95576
2015-07-19T01:02:11.743Z,95568
2015-07-19T01:02:30.118Z,95567
2015-07-19T01:02:47.899Z,95564
2015-07-19T01:03:06.414Z,95570
2015-07-19T01:03:25.088Z,95562
2015-07-19T01:03:43.526Z,95570
2015-07-19T01:04:01.901Z,95564
2015-07-19T01:04:20.355Z,95564
2015-07-19T01:04:38.746Z,95553
2015-07-19T01:04:57.152Z,95555
2015-07-19T01:05:15.561Z,95561
2015-07-19T01:05:33.420Z,95561
2015-07-19T01:05:51.905Z,95558
2015-07-19T01:06:10.344Z,95555
2015-07-19T01:06:28.876Z,95549
2015-07-19T01:06:47.344Z,95560
2015-07-19T01:07:05.797Z,95552
2015-07-19T01:07:24.189Z,95552
2015-07-19T01:07:42.611Z,95555
2015-07-19T01:08:01.002Z,95557
2015-07-19T01:08:19.394Z,95554
2015-07-19T01:08:37.879Z,95557
2015-07-19T01:08:56.285Z,95551
2015-07-19T01:09:14.818Z,95551
2015-07-19T01:09:33.177Z,95546
2015-07-19T01:09:51.709Z,95546
2015-07-19T01:10:10.224Z,95552
2015-07-19T01:10:27.961Z,95557
2015-07-19T01:10:46.336Z,95554
2015-07-19T01:11:04.711Z,95556
2015-07-19T01:11:23.291Z,95554
2015-07-19T01:11:41.885Z,95557
2015-07-19T01:12:00.353Z,95546
2015-07-19T01:12:18.793Z,95551
2015-07-19T01:12:37.246Z,95557
2015-07-19T01:12:55.621Z,95563
2015-07-19T01:13:14.168Z,95558
2015-07-19T01:13:32.592Z,95549
2015-07-19T01:13:51.029Z,95549
2015-07-19T01:14:09.420Z,95546
2015-07-19T01:14:27.812Z,95543
2015-07-19T01:14:46.219Z,95546
2015-07-19T01:15:04.656Z,95548
2015-07-19T01:15:23.205Z,95542
2015-07-19T01:15:41.846Z,95536
2015-07-19T01:16:00.268Z,95539
2015-07-19T01:16:18.643Z,95538
2015-07-19T01:16:37.004Z,95524
2015-07-19T01:16:55.457Z,95529
2015-07-19T01:17:13.879Z,95529
2015-07-19T01:17:32.397Z,95532
2015-07-19T01:17:50.912Z,95529
2015-07-19T01:18:09.303Z,95527
2015-07-19T01:18:27.899Z,95530
2015-07-19T01:18:46.602Z,95525
2015-07-19T01:19:05.274Z,95539
2015-07-19T01:19:23.979Z,95530
2015-07-19T01:19:42.447Z,95533
2015-07-19T01:20:00.885Z,95536
2015-07-19T01:20:19.479Z,95538
2015-07-19T01:20:37.948Z,95530
2015-07-19T01:20:56.370Z,95529
2015-07-19T01:21:14.808Z,95529
2015-07-19T01:21:33.311Z,95541
2015-07-19T01:21:51.670Z,95537
2015-07-19T01:22:10.045Z,95536
2015-07-19T01:22:28.484Z,95530
2015-07-19T01:22:46.984Z,95525
2015-07-19T01:23:05.656Z,95531
2015-07-19T01:23:24.140Z,95528
2015-07-19T01:23:42.626Z,95522
2015-07-19T01:24:01.126Z,95520
2015-07-19T01:24:19.658Z,95517
2015-07-19T01:24:38.050Z,95521
2015-07-19T01:24:56.472Z,95521
2015-07-19T01:25:15.081Z,95523
2015-07-19T01:25:33.787Z,95514
2015-07-19T01:25:52.208Z,95529
2015-07-19T01:26:10.755Z,95520
2015-07-19T01:26:29.287Z,95517
2015-07-19T01:26:47.914Z,95517
2015-07-19T01:27:06.398Z,95517
2015-07-19T01:27:24.898Z,95519
2015-07-19T01:27:43.275Z,95519
2015-07-19T01:28:01.884Z,95522
2015-07-19T01:28:20.431Z,95521
2015-07-19T01:28:38.886Z,95512
2015-07-19T01:28:57.418Z,95515
2015-07-19T01:29:15.918Z,95513
2015-07-19T01:29:34.513Z,95517
2015-07-19T01:29:52.904Z,95517
2015-07-19T01:30:11.482Z,95506
2015-07-19T01:30:29.920Z,95515
2015-07-19T01:30:48.532Z,95512
2015-07-19T01:31:06.923Z,95509
2015-07-19T01:31:25.298Z,95512
2015-07-19T01:31:43.674Z,95500
2015-07-19T01:32:02.064Z,95505
2015-07-19T01:32:20.470Z,95505
2015-07-19T01:32:38.207Z,95506
2015-07-19T01:32:56.582Z,95501
2015-07-19T01:33:14.957Z,95499
2015-07-19T01:33:33.363Z,95505
2015-07-19T01:33:51.756Z,95508
2015-07-19T01:34:10.178Z,95493
2015-07-19T01:34:28.724Z,95510
2015-07-19T01:34:47.351Z,95501
2015-07-19T01:35:05.711Z,95495
2015-07-19T01:35:24.258Z,95492
2015-07-19T01:35:42.666Z,95491
2015-07-19T01:36:01.119Z,95497
2015-07-19T01:36:19.494Z,95495
2015-07-19T01:36:37.963Z,95492
2015-07-19T01:36:56.590Z,95491
2015-07-19T01:37:14.996Z,95491
2015-07-19T01:37:33.402Z,95499
2015-07-19T01:37:51.889Z,95490
2015-07-19T01:38:10.357Z,95495
2015-07-19T01:38:28.326Z,95496
2015-07-19T01:38:46.938Z,95493
2015-07-19T01:39:05.313Z,95492
2015-07-19T01:39:23.859Z,95495
2015-07-19T01:39:42.250Z,95492
2015-07-19T01:40:00.736Z,95489
2015-07-19T01:40:19.252Z,95483
2015-07-19T01:40:37.627Z,95490
2015-07-19T01:40:56.003Z,95491
2015-07-19T01:41:13.784Z,95494
2015-07-19T01:41:32.175Z,95497
2015-07-19T01:41:50.864Z,95485
2015-07-19T01:42:09.239Z,95499
2015-07-19T01:42:27.646Z,95493
2015-07-19T01:42:46.099Z,95484
2015-07-19T01:43:04.507Z,95484
2015-07-19T01:43:23.101Z,95484
2015-07-19T01:43:41.663Z,95483
2015-07-19T01:44:00.197Z,95484
2015-07-19T01:44:18.556Z,95487
2015-07-19T01:44:37.087Z,95485
2015-07-19T01:44:55.559Z,95487
2015-07-19T01:45:14.231Z,95484
2015-07-19T01:45:32.653Z,95481
2015-07-19T01:45:51.155Z,95481
2015-07-19T01:46:09.748Z,95486
2015-07-19T01:46:28.217Z,95478
2015-07-19T01:46:46.608Z,95477
2015-07-19T01:47:05.125Z,95476
2015-07-19T01:47:23.485Z,95478
2015-07-19T01:47:41.954Z,95478
2015-07-19T01:48:00.487Z,95478
2015-07-19T01:48:18.956Z,95481
2015-07-19T01:48:37.659Z,95486
2015-07-19T01:48:56.128Z,95489
2015-07-19T01:49:14.488Z,95483
2015-07-19T01:49:32.972Z,95477
2015-07-19T01:49:51.425Z,95480
2015-07-19T01:50:09.787Z,95486
2015-07-19T01:50:28.224Z,95483
2015-07-19T01:50:46.755Z,95483
2015-07-19T01:51:05.257Z,95472
2015-07-19T01:51:23.664Z,95487
2015-07-19T01:51:42.039Z,95478
2015-07-19T01:52:00.464Z,95489
2015-07-19T01:52:18.964Z,95483
2015-07-19T01:52:37.385Z,95477
2015-07-19T01:52:55.760Z,95469
2015-07-19T01:53:14.308Z,95475
2015-07-19T01:53:32.918Z,95481
2015-07-19T01:53:51.293Z,95481
2015-07-19T01:54:09.732Z,95481
2015-07-19T01:54:28.107Z,95478
2015-07-19T01:54:46.482Z,95469
2015-07-19T01:55:05.156Z,95475
2015-07-19T01:55:23.531Z,95470
2015-07-19T01:55:41.937Z,95479
2015-07-19T01:56:00.344Z,95473
2015-07-19T01:56:18.986Z,95469
2015-07-19T01:56:37.611Z,95469
2015-07-19T01:56:55.986Z,95469
2015-07-19T01:57:14.457Z,95469
2015-07-19T01:57:32.973Z,95464
2015-07-19T01:57:51.426Z,95464
2015-07-19T01:58:09.959Z,95466
2015-07-19T01:58:28.521Z,95469
2015-07-19T01:58:46.975Z,95464
2015-07-19T01:59:05.568Z,95463
2015-07-19T01:59:24.008Z,95468
2015-07-19T01:59:42.414Z,95465
2015-07-19T02:00:00.789Z,95459
2015-07-19T02:00:19.260Z,95466
2015-07-19T02:00:37.682Z,95462
2015-07-19T02:00:56.244Z,95463
2015-07-19T02:01:14.746Z,95452
2015-07-19T02:01:33.152Z,95463
2015-07-19T02:01:50.981Z,95463
2015-07-19T02:02:09.684Z,95463
2015-07-19T02:02:28.311Z,95460
2015-07-19T02:02:46.842Z,95452
2015-07-19T02:03:05.248Z,95464
2015-07-19T02:03:23.063Z,95459
2015-07-19T02:03:41.531Z,95459
2015-07-19T02:04:00.016Z,95447
2015-07-19T02:04:18.532Z,95462
2015-07-19T02:04:37.032Z,95462
2015-07-19T02:04:54.798Z,95461
2015-07-19T02:05:13.160Z,95462
2015-07-19T02:05:31.582Z,95463
2015-07-19T02:05:50.020Z,95461
2015-07-19T02:06:08.567Z,95452
2015-07-19T02:06:26.928Z,95463
2015-07-19T02:06:45.381Z,95449
2015-07-19T02:07:03.834Z,95450
2015-07-19T02:07:22.460Z,95462
2015-07-19T02:07:40.960Z,95451
2015-07-19T02:07:59.335Z,95448
2015-07-19T02:08:17.931Z,95450
2015-07-19T02:08:36.478Z,95447
2015-07-19T02:08:55.040Z,95433
2015-07-19T02:09:13.415Z,95438
2015-07-19T02:09:31.809Z,95428
2015-07-19T02:09:50.168Z,95436
2015-07-19T02:10:08.543Z,95432
2015-07-19T02:10:27.077Z,95430
2015-07-19T02:10:45.639Z,95430
2015-07-19T02:11:03.999Z,95424
2015-07-19T02:11:22.422Z,95437
2015-07-19T02:11:40.204Z,95426
2015-07-19T02:11:58.641Z,95429
2015-07-19T02:12:17.094Z,95423
2015-07-19T02:12:35.581Z,95424
2015-07-19T02:12:54.003Z,95412
2015-07-19T02:13:12.424Z,95425
2015-07-19T02:13:30.785Z,95419
2015-07-19T02:13:49.144Z,95410
2015-07-19T02:14:07.582Z,95422
2015-07-19T02:14:25.990Z,95410
2015-07-19T02:14:44.631Z,95407
2015-07-19T02:15:03.177Z,95402
2015-07-19T02:15:21.787Z,95408
2015-07-19T02:15:40.226Z,95403
2015-07-19T02:15:58.883Z,95400
2015-07-19T02:16:17.461Z,95409
2015-07-19T02:16:35.931Z,95406
2015-07-19T02:16:54.338Z,95390
2015-07-19T02:17:12.713Z,95395
2015-07-19T02:17:31.199Z,95400
2015-07-19T02:17:49.762Z,95400
2015-07-19T02:18:08.121Z,95404
2015-07-19T02:18:26.668Z,95409
2015-07-19T02:18:45.108Z,95401
2015-07-19T02:19:03.608Z,95412
2015-07-19T02:19:22.015Z,95413
2015-07-19T02:19:40.454Z,95416
2015-07-19T02:19:59.017Z,95419
2015-07-19T02:20:17.642Z,95421
2015-07-19T02:20:36.018Z,95415
2015-07-19T02:20:54.424Z,95427
2015-07-19T02:21:12.908Z,95421
2015-07-19T02:21:31.314Z,95423
2015-07-19T02:21:49.848Z,95431
2015-07-19T02:22:08.520Z,95431
2015-07-19T02:22:26.910Z,95431
2015-07-19T02:22:45.459Z,95449
2015-07-19T02:23:03.818Z,95433
2015-07-19T02:23:22.256Z,95437
2015-07-19T02:23:40.820Z,95442
2015-07-19T02:23:59.258Z,95454
2015-07-19T02:24:17.805Z,95459
2015-07-19T02:24:36.242Z,95462
2015-07-19T02:24:54.619Z,95461
2015-07-19T02:25:13.369Z,95463
2015-07-19T02:25:31.963Z,95474
2015-07-19T02:25:50.371Z,95474
2015-07-19T02:26:08.746Z,95488
2015-07-19T02:26:27.278Z,95488
2015-07-19T02:26:45.936Z,95486
2015-07-19T02:27:04.373Z,95491
2015-07-19T02:27:22.795Z,95494
2015-07-19T02:27:41.170Z,95496
2015-07-19T02:27:59.578Z,95488
2015-07-19T02:28:18.094Z,95494
2015-07-19T02:28:36.485Z,95502
2015-07-19T02:28:54.346Z,95494
2015-07-19T02:29:12.799Z,95505
2015-07-19T02:29:31.362Z,95506
2015-07-19T02:29:50.332Z,95514
2015-07-19T02:30:08.739Z,95508
2015-07-19T02:30:26.567Z,95508
2015-07-19T02:30:45.020Z,95511
2015-07-19T02:31:03.600Z,95506
2015-07-19T02:31:22.022Z,95516
2015-07-19T02:31:40.381Z,95506
2015-07-19T02:31:58.836Z,95506
2015-07-19T02:32:17.399Z,95501
2015-07-19T02:32:35.805Z,95515
2015-07-19T02:32:54.588Z,95509
2015-07-19T02:33:12.963Z,95506
2015-07-19T02:33:31.432Z,95504
2015-07-19T02:33:49.809Z,95506
2015-07-19T02:34:08.294Z,95500
2015-07-19T02:34:26.669Z,95495
2015-07-19T02:34:45.434Z,95494
2015-07-19T02:35:03.639Z,95486
2015-07-19T02:35:22.139Z,95492
2015-07-19T02:35:40.702Z,95491
2015-07-19T02:35:59.266Z,95486
2015-07-19T02:36:17.860Z,95483
2015-07-19T02:36:36.469Z,95483
2015-07-19T02:36:54.987Z,95474
2015-07-19T02:37:13.846Z,95471
2015-07-19T02:37:32.518Z,95474
2015-07-19T02:37:51.191Z,95468
2015-07-19T02:38:09.801Z,95479
2015-07-19T02:38:28.347Z,95480
2015-07-19T02:38:46.738Z,95474
2015-07-19T02:39:05.271Z,95468
2015-07-19T02:39:23.787Z,95465
2015-07-19T02:39:42.349Z,95467
2015-07-19T02:40:00.992Z,95467
2015-07-19T02:40:19.367Z,95464
2015-07-19T02:40:37.914Z,95462
2015-07-19T02:40:56.354Z,95470
2015-07-19T02:41:14.948Z,95470
2015-07-19T02:41:33.604Z,95469
2015-07-19T02:41:51.979Z,95469
2015-07-19T02:42:10.340Z,95464
2015-07-19T02:42:28.746Z,95464
2015-07-19T02:42:47.152Z,95464
2015-07-19T02:43:05.779Z,95462
2015-07-19T02:43:24.279Z,95449
2015-07-19T02:44:04.313Z,95465
2015-07-19T02:44:22.813Z,95463
2015-07-19T02:44:41.422Z,95463
2015-07-19T02:44:59.940Z,95467
2015-07-19T02:45:18.393Z,95454
2015-07-19T02:45:36.815Z,95470
2015-07-19T02:45:55.455Z,95466
2015-07-19T02:46:13.863Z,95466
2015-07-19T02:46:32.395Z,95475
2015-07-19T02:46:50.926Z,95466
2015-07-19T02:47:09.522Z,95466
2015-07-19T02:47:27.912Z,95463
2015-07-19T02:47:46.475Z,95461
2015-07-19T02:48:05.117Z,95466
2015-07-19T02:48:23.696Z,95465
2015-07-19T02:48:42.508Z,95461
2015-07-19T02:49:01.072Z,95470
2015-07-19T02:49:19.431Z,95454
2015-07-19T02:49:37.806Z,95460
2015-07-19T02:49:56.353Z,95463
2015-07-19T02:50:14.840Z,95452
2015-07-19T02:50:33.387Z,95465
2015-07-19T02:50:51.793Z,95460
2015-07-19T02:51:10.185Z,95464
2015-07-19T02:51:28.794Z,95459
2015-07-19T02:51:47.279Z,95462
2015-07-19T02:52:05.765Z,95454
2015-07-19T02:52:24.187Z,95445
2015-07-19T02:52:42.984Z,95454
2015-07-19T02:53:01.437Z,95451
2015-07-19T02:53:20.002Z,95448
2015-07-19T02:53:37.799Z,95451
2015-07-19T02:53:56.252Z,95454
2015-07-19T02:54:14.708Z,95462
2015-07-19T02:54:33.270Z,95448
2015-07-19T02:54:51.645Z,95448
2015-07-19T02:55:10.037Z,95447
2015-07-19T02:55:28.474Z,95442
2015-07-19T02:55:46.912Z,95452
2015-07-19T02:56:05.412Z,95446
2015-07-19T02:56:23.993Z,95446
2015-07-19T02:56:42.399Z,95437
2015-07-19T02:57:00.852Z,95435
2015-07-19T02:57:18.667Z,95441
2015-07-19T02:57:37.073Z,95444
2015-07-19T02:57:55.682Z,95443
2015-07-19T02:58:14.324Z,95438
2015-07-19T02:58:32.730Z,95438
2015-07-19T02:58:51.183Z,95444
2015-07-19T02:59:09.748Z,95441
2015-07-19T02:59:28.154Z,95446
2015-07-19T02:59:46.935Z,95438
2015-07-19T03:00:05.420Z,95435
2015-07-19T03:00:23.984Z,95440
2015-07-19T03:00:42.344Z,95446
2015-07-19T03:01:00.719Z,95443
2015-07-19T03:01:19.142Z,95446
2015-07-19T03:01:37.564Z,95443
2015-07-19T03:01:56.080Z,95446
2015-07-19T03:02:14.519Z,95435
2015-07-19T03:02:32.973Z,95435
2015-07-19T03:02:51.441Z,95441
2015-07-19T03:03:09.176Z,95441
2015-07-19T03:03:27.771Z,95437
2015-07-19T03:03:46.287Z,95451
2015-07-19T03:04:04.662Z,95445
2015-07-19T03:04:23.055Z,95440
2015-07-19T03:04:41.414Z,95438
2015-07-19T03:05:00.008Z,95435
2015-07-19T03:05:18.541Z,95438
2015-07-19T03:05:37.322Z,95444
2015-07-19T03:05:55.697Z,95435
2015-07-19T03:06:14.182Z,95441
2015-07-19T03:06:32.543Z,95446
2015-07-19T03:06:50.949Z,95432
2015-07-19T03:07:09.871Z,95446
2015-07-19T03:07:28.436Z,95441
2015-07-19T03:07:46.826Z,95436
2015-07-19T03:08:05.326Z,95447
2015-07-19T03:08:23.719Z,95451
2015-07-19T03:08:42.219Z,95447
2015-07-19T03:09:00.625Z,95445
2015-07-19T03:09:19.174Z,95444
2015-07-19T03:09:37.627Z,95447
2015-07-19T03:09:56.018Z,95446
2015-07-19T03:10:14.471Z,95449
2015-07-19T03:10:33.004Z,95460
2015-07-19T03:10:51.379Z,95451
2015-07-19T03:11:09.817Z,95449
2015-07-19T03:11:28.380Z,95445
2015-07-19T03:11:46.865Z,95451
2015-07-19T03:12:05.240Z,95448
2015-07-19T03:12:23.632Z,95462
2015-07-19T03:12:42.038Z,95453
2015-07-19T03:13:00.476Z,95450
2015-07-19T03:13:19.038Z,95453
2015-07-19T03:13:37.415Z,95451
2015-07-19T03:13:55.822Z,95448
2015-07-19T03:14:14.228Z,95441
2015-07-19T03:14:32.761Z,95447
2015-07-19T03:14:51.230Z,95461
2015-07-19T03:15:09.652Z,95450
2015-07-19T03:15:28.092Z,95452
2015-07-19T03:15:46.608Z,95451
2015-07-19T03:16:05.014Z,95449
2015-07-19T03:16:23.467Z,95438
2015-07-19T03:16:41.844Z,95463
2015-07-19T03:17:00.282Z,95452
2015-07-19T03:17:18.672Z,95450
2015-07-19T03:17:37.252Z,95447
2015-07-19T03:17:55.830Z,95446
2015-07-19T03:18:14.502Z,95440
2015-07-19T03:18:33.130Z,95451
2015-07-19T03:18:51.973Z,95437
2015-07-19T03:19:10.364Z,95440
2015-07-19T03:19:29.115Z,95440
2015-07-19T03:19:47.959Z,95446
2015-07-19T03:20:05.834Z,95438
2015-07-19T03:20:24.193Z,95440
2015-07-19T03:20:42.852Z,95452
2015-07-19T03:21:01.243Z,95438
2015-07-19T03:21:19.634Z,95438
2015-07-19T03:21:38.025Z,95447
2015-07-19T03:21:56.510Z,95436
2015-07-19T03:22:14.916Z,95439
2015-07-19T03:22:32.855Z,95442
2015-07-19T03:22:51.433Z,95446
2015-07-19T03:23:09.996Z,95433
2015-07-19T03:23:28.558Z,95433
2015-07-19T03:23:46.967Z,95440
2015-07-19T03:24:05.467Z,95440
2015-07-19T03:24:23.998Z,95433
2015-07-19T03:24:42.469Z,95438
2015-07-19T03:25:00.937Z,95437
2015-07-19T03:25:19.328Z,95437
2015-07-19T03:25:37.705Z,95437
2015-07-19T03:25:56.158Z,95434
2015-07-19T03:26:14.689Z,95440
2015-07-19T03:26:33.346Z,95435
2015-07-19T03:26:51.942Z,95435
2015-07-19T03:27:10.458Z,95435
2015-07-19T03:27:28.849Z,95439
2015-07-19T03:27:47.256Z,95434
2015-07-19T03:28:05.725Z,95435
2015-07-19T03:28:24.225Z,95441
2015-07-19T03:28:42.602Z,95430
2015-07-19T03:29:02.227Z,95435
2015-07-19T03:29:20.195Z,95435
2015-07-19T03:29:38.836Z,95433
2015-07-19T03:29:57.260Z,95430
2015-07-19T03:30:15.744Z,95425
2015-07-19T03:30:34.197Z,95430
2015-07-19T03:30:52.793Z,95425
2015-07-19T03:31:11.278Z,95428
2015-07-19T03:31:29.653Z,95423
2015-07-19T03:31:47.373Z,95423
2015-07-19T03:32:05.858Z,95424
2015-07-19T03:32:24.389Z,95424
2015-07-19T03:32:42.795Z,95433
2015-07-19T03:33:01.157Z,95425
2015-07-19T03:33:19.594Z,95422
2015-07-19T03:33:38.000Z,95419
2015-07-19T03:33:56.471Z,95424
2015-07-19T03:34:14.987Z,95427
2015-07-19T03:34:33.377Z,95421
2015-07-19T03:34:51.910Z,95426
2015-07-19T03:35:10.269Z,95415
2015-07-19T03:35:28.660Z,95423
2015-07-19T03:35:47.035Z,95423
2015-07-19T03:36:05.255Z,95423
2015-07-19T03:36:23.615Z,95428
2015-07-19T03:36:42.052Z,95426
2015-07-19T03:37:00.415Z,95423
2015-07-19T03:37:18.790Z,95428
2015-07-19T03:37:37.274Z,95426
2015-07-19T03:37:55.667Z,95429
2015-07-19T03:38:14.135Z,95434
2015-07-19T03:38:32.995Z,95429
2015-07-19T03:38:51.370Z,95423
2015-07-19T03:39:09.777Z,95420
2015-07-19T03:39:27.683Z,95429
2015-07-19T03:39:46.058Z,95432
2015-07-19T03:40:04.452Z,95433
2015-07-19T03:40:22.827Z,95432
2015-07-19T03:40:41.342Z,95418
2015-07-19T03:40:59.718Z,95424
2015-07-19T03:41:18.297Z,95418
2015-07-19T03:41:36.812Z,95422
2015-07-19T03:41:55.189Z,95424
2015-07-19T03:42:13.689Z,95416
2015-07-19T03:42:32.174Z,95422
2015-07-19T03:42:50.689Z,95428
2015-07-19T03:43:09.082Z,95417
2015-07-19T03:43:27.644Z,95420
2015-07-19T03:43:46.551Z,95422
2015-07-19T03:44:04.928Z,95425
2015-07-19T03:44:23.521Z,95414
2015-07-19T03:44:41.928Z,95420
2015-07-19T03:45:00.367Z,95414
2015-07-19T03:45:18.867Z,95417
2015-07-19T03:45:37.258Z,95423
2015-07-19T03:45:55.758Z,95414
2015-07-19T03:46:14.292Z,95417
2015-07-19T03:46:32.808Z,95417
2015-07-19T03:46:51.167Z,95414
2015-07-19T03:47:09.716Z,95411
2015-07-19T03:47:28.185Z,95414
2015-07-19T03:47:46.685Z,95417
2015-07-19T03:48:05.343Z,95411
2015-07-19T03:48:23.952Z,95408
2015-07-19T03:48:42.437Z,95412
2015-07-19T03:49:00.874Z,95415
2015-07-19T03:49:19.313Z,95412
2015-07-19T03:49:37.828Z,95403
2015-07-19T03:49:56.359Z,95406
2015-07-19T03:50:14.847Z,95423
2015-07-19T03:50:33.409Z,95403
2015-07-19T03:50:51.784Z,95406
2015-07-19T03:51:10.363Z,95403
2015-07-19T03:51:28.801Z,95403
2015-07-19T03:51:47.192Z,95409
2015-07-19T03:52:05.582Z,95406
2015-07-19T03:52:24.178Z,95403
2015-07-19T03:52:42.662Z,95406
2015-07-19T03:53:01.037Z,95401
2015-07-19T03:53:19.571Z,95401
2015-07-19T03:53:38.024Z,95409
2015-07-19T03:53:56.539Z,95398
2015-07-19T03:54:14.916Z,95406
2015-07-19T03:54:33.307Z,95406
2015-07-19T03:54:51.135Z,95401
2015-07-19T03:55:09.823Z,95412
2015-07-19T03:55:28.355Z,95403
2015-07-19T03:55:46.370Z,95409
2015-07-19T03:56:04.870Z,95406
2015-07-19T03:56:23.279Z,95406
2015-07-19T03:56:41.779Z,95411
2015-07-19T03:57:00.201Z,95417
2015-07-19T03:57:18.661Z,95405
2015-07-19T03:57:37.349Z,95407
2015-07-19T03:57:55.802Z,95405
2015-07-19T03:58:14.240Z,95411